Time;durP1;ratioP1;P1;durP2;ratioP2;P2;SDS_P1;SDS_P2;PMS_P1;PMS_P2;Temp;Humidity;BMP_temperature;BMP_pressure;BME280_temperature;BME280_humidity;BME280_pressure;Samples;Min_cycle;Max_cycle;Signal;HPM_P1;HPM_P2
2023/06/25 00:02:15;;;;;;;4.83;4.43;;;20.10;85.10;;;;;;5943479;24;20448;-80
2023/06/25 00:04:41;;;;;;;5.13;4.73;;;20.10;85.60;;;;;;5964880;24;20490;-79
2023/06/25 00:07:08;;;;;;;6.07;4.57;;;20.00;86.30;;;;;;5963238;24;20464;-81
2023/06/25 00:09:36;;;;;;;4.77;4.40;;;19.90;87.60;;;;;;5963134;24;20834;-79
2023/06/25 00:12:04;;;;;;;4.43;4.13;;;19.70;88.80;;;;;;5962730;24;20518;-80
2023/06/25 00:14:31;;;;;;;4.80;4.40;;;19.60;89.70;;;;;;5968520;24;20529;-80
2023/06/25 00:16:59;;;;;;;5.93;5.33;;;19.50;90.20;;;;;;5962519;23;20942;-79
2023/06/25 00:19:27;;;;;;;4.83;4.43;;;19.50;90.80;;;;;;5955671;24;20529;-80
2023/06/25 00:21:54;;;;;;;4.63;4.23;;;19.40;91.00;;;;;;5951219;23;20451;-80
2023/06/25 00:24:22;;;;;;;5.07;4.67;;;19.30;91.20;;;;;;5952435;24;20522;-79
2023/06/25 00:26:49;;;;;;;5.00;4.60;;;19.40;91.40;;;;;;5956522;24;21544;-79
2023/06/25 00:29:16;;;;;;;5.70;5.20;;;19.50;91.50;;;;;;5951565;23;20507;-79
2023/06/25 00:31:43;;;;;;;5.10;4.70;;;19.50;91.70;;;;;;5951233;23;20443;-79
2023/06/25 00:34:11;;;;;;;5.80;5.40;;;19.50;92.20;;;;;;5939781;24;21019;-80
2023/06/25 00:36:40;;;;;;;5.73;5.10;;;19.40;92.50;;;;;;5951686;24;20438;-80
2023/06/25 00:39:08;;;;;;;5.13;4.73;;;19.30;92.80;;;;;;5957947;23;20993;-79
2023/06/25 00:41:35;;;;;;;5.00;4.60;;;19.30;93.00;;;;;;5964163;24;20490;-79
2023/06/25 00:44:06;;;;;;;5.00;4.60;;;19.30;93.30;;;;;;5953247;24;20451;-79
2023/06/25 00:46:33;;;;;;;4.93;4.63;;;19.30;93.70;;;;;;5957963;24;20458;-79
2023/06/25 00:49:05;;;;;;;5.50;5.10;;;19.30;94.20;;;;;;5959336;24;20442;-79
2023/06/25 00:51:35;;;;;;;5.30;4.90;;;19.20;94.80;;;;;;5956128;24;20443;-79
2023/06/25 00:54:04;;;;;;;5.70;5.20;;;19.10;95.40;;;;;;5945939;24;20466;-79
2023/06/25 00:56:31;;;;;;;4.80;4.50;;;19.00;96.00;;;;;;5953184;24;20440;-80
2023/06/25 00:59:01;;;;;;;5.80;5.33;;;19.00;96.70;;;;;;5951501;24;20505;-79
2023/06/25 01:01:46;;;;;;;5.63;5.23;;;18.90;96.60;;;;;;5955509;24;20453;-79
2023/06/25 01:04:19;;;;;;;5.57;5.10;;;18.90;96.90;;;;;;5951178;24;20470;-79
2023/06/25 01:06:51;;;;;;;6.00;5.50;;;18.90;97.40;;;;;;5968662;24;20481;-79
2023/06/25 01:09:18;;;;;;;5.97;5.57;;;18.80;97.80;;;;;;5946037;24;21321;-79
2023/06/25 01:11:53;;;;;;;6.27;5.77;;;18.70;98.90;;;;;;5963424;24;21332;-80
2023/06/25 01:14:21;;;;;;;6.90;6.30;;;18.60;99.30;;;;;;5966960;24;20985;-80
2023/06/25 01:16:49;;;;;;;7.43;6.83;;;18.60;99.60;;;;;;5963682;24;20470;-80
2023/06/25 01:19:18;;;;;;;8.20;7.50;;;18.60;99.90;;;;;;5958237;24;20443;-80
2023/06/25 01:21:47;;;;;;;7.67;6.97;;;18.60;99.90;;;;;;5964892;23;20526;-80
2023/06/25 01:24:16;;;;;;;8.00;7.27;;;18.60;99.90;;;;;;5960464;24;20458;-81
2023/06/25 01:26:44;;;;;;;8.50;7.60;;;18.70;99.90;;;;;;5961384;24;20525;-80
2023/06/25 01:29:12;;;;;;;8.60;7.80;;;18.60;99.90;;;;;;5964321;24;20513;-80
2023/06/25 01:31:40;;;;;;;7.60;6.80;;;18.60;99.90;;;;;;5962277;24;20497;-80
2023/06/25 01:34:07;;;;;;;7.10;6.40;;;18.50;99.90;;;;;;5961628;24;21002;-80
2023/06/25 01:36:39;;;;;;;6.97;6.37;;;18.50;99.90;;;;;;5963720;24;20469;-80
2023/06/25 01:39:06;;;;;;;6.53;6.03;;;18.50;99.90;;;;;;5981124;24;20457;-81
2023/06/25 01:41:35;;;;;;;6.47;5.97;;;18.50;99.90;;;;;;5972984;24;20435;-80
2023/06/25 01:44:02;;;;;;;6.77;6.20;;;18.50;99.90;;;;;;5988855;23;21132;-80
2023/06/25 01:46:29;;;;;;;6.40;5.90;;;18.40;99.90;;;;;;5987514;23;20443;-80
2023/06/25 01:48:56;;;;;;;5.73;5.33;;;18.40;99.90;;;;;;5986495;24;20446;-80
2023/06/25 01:51:23;;;;;;;6.03;5.50;;;18.40;99.90;;;;;;5985174;23;20526;-80
2023/06/25 01:53:50;;;;;;;5.53;5.10;;;18.50;99.90;;;;;;5981123;24;20471;-80
2023/06/25 01:56:17;;;;;;;6.40;5.90;;;18.50;99.90;;;;;;5966318;24;20477;-81
2023/06/25 01:58:46;;;;;;;6.07;5.53;;;18.40;99.90;;;;;;5960508;23;20557;-80
2023/06/25 02:01:13;;;;;;;6.07;5.47;;;18.30;99.90;;;;;;5967033;24;20442;-80
2023/06/25 02:03:40;;;;;;;6.33;5.83;;;18.30;99.90;;;;;;5965986;24;21574;-80
2023/06/25 02:06:07;;;;;;;6.43;6.00;;;18.20;99.90;;;;;;5959742;24;20443;-80
2023/06/25 02:08:34;;;;;;;6.53;5.93;;;18.10;99.90;;;;;;5956027;24;20446;-80
2023/06/25 02:11:01;;;;;;;6.30;5.80;;;18.00;99.90;;;;;;5955263;24;20475;-80
2023/06/25 02:13:28;;;;;;;5.77;5.13;;;18.00;99.90;;;;;;5949583;24;20459;-80
2023/06/25 02:15:57;;;;;;;6.07;5.57;;;17.90;99.90;;;;;;5958087;24;20510;-80
2023/06/25 02:18:24;;;;;;;6.90;6.40;;;18.00;99.90;;;;;;5959911;24;20468;-80
2023/06/25 02:20:51;;;;;;;5.93;5.53;;;17.90;99.90;;;;;;5958688;24;20437;-80
2023/06/25 02:23:18;;;;;;;5.60;5.20;;;17.90;99.90;;;;;;5952376;24;21211;-79
2023/06/25 02:25:45;;;;;;;5.80;5.30;;;17.90;99.90;;;;;;5959442;24;20477;-80
2023/06/25 02:28:12;;;;;;;6.13;5.63;;;17.80;99.90;;;;;;5956514;24;20520;-80
2023/06/25 02:30:39;;;;;;;6.27;5.77;;;17.80;99.90;;;;;;5951011;24;20580;-79
2023/06/25 02:33:07;;;;;;;6.20;5.70;;;17.80;99.90;;;;;;5953279;24;20533;-80
2023/06/25 02:35:34;;;;;;;5.43;5.03;;;17.80;99.90;;;;;;5955333;24;20497;-80
2023/06/25 02:38:01;;;;;;;6.27;5.70;;;17.70;99.90;;;;;;5954090;23;20862;-80
2023/06/25 02:40:29;;;;;;;6.17;5.73;;;17.70;99.90;;;;;;5945383;24;20561;-80
2023/06/25 02:42:56;;;;;;;6.50;5.97;;;17.60;99.90;;;;;;5950637;24;20990;-80
2023/06/25 02:45:24;;;;;;;6.30;5.80;;;17.60;99.90;;;;;;5950958;24;20525;-80
2023/06/25 02:47:51;;;;;;;6.00;5.50;;;17.50;99.90;;;;;;5942022;24;20804;-80
2023/06/25 02:50:19;;;;;;;6.60;6.07;;;17.50;99.90;;;;;;5952317;24;20460;-79
2023/06/25 02:52:46;;;;;;;6.30;5.70;;;17.50;99.90;;;;;;5950041;24;20565;-79
2023/06/25 02:55:13;;;;;;;6.60;6.10;;;17.40;99.90;;;;;;5938487;24;20502;-79
2023/06/25 02:57:40;;;;;;;6.10;5.60;;;17.40;99.90;;;;;;5937824;24;20438;-79
2023/06/25 03:00:08;;;;;;;6.63;6.13;;;17.40;99.90;;;;;;5949312;24;20451;-79
2023/06/25 03:02:35;;;;;;;6.30;5.80;;;17.40;99.90;;;;;;5948337;24;20892;-80
2023/06/25 03:05:03;;;;;;;6.13;5.73;;;17.30;99.90;;;;;;5949270;24;20518;-79
2023/06/25 03:07:31;;;;;;;6.00;5.50;;;17.30;99.90;;;;;;5946851;24;20442;-79
2023/06/25 03:09:58;;;;;;;6.73;6.23;;;17.20;99.90;;;;;;5949434;24;21081;-80
2023/06/25 03:12:25;;;;;;;7.03;6.43;;;17.20;99.90;;;;;;5944365;24;20431;-79
2023/06/25 03:14:52;;;;;;;6.77;6.23;;;17.20;99.90;;;;;;5946602;24;20502;-79
2023/06/25 03:17:19;;;;;;;6.47;5.97;;;17.10;99.90;;;;;;5947845;24;20505;-79
2023/06/25 03:19:46;;;;;;;6.47;5.97;;;17.10;99.90;;;;;;5946396;24;20443;-79
2023/06/25 03:22:13;;;;;;;6.70;6.10;;;17.00;99.90;;;;;;5947016;23;20990;-79
2023/06/25 03:24:42;;;;;;;6.93;6.43;;;17.00;99.90;;;;;;5943912;24;20983;-79
2023/06/25 03:27:09;;;;;;;7.50;7.00;;;16.90;99.90;;;;;;5967436;24;20438;-79
2023/06/25 03:29:36;;;;;;;7.30;6.60;;;16.80;99.90;;;;;;5958178;23;20602;-79
2023/06/25 03:32:03;;;;;;;7.03;6.50;;;16.70;99.90;;;;;;5983582;24;20466;-78
2023/06/25 03:34:30;;;;;;;7.10;6.60;;;16.70;99.90;;;;;;5991927;23;20473;-78
2023/06/25 03:36:57;;;;;;;6.70;6.20;;;16.70;99.90;;;;;;5978772;24;20473;-80
2023/06/25 03:39:24;;;;;;;6.47;5.97;;;16.80;99.90;;;;;;5966624;24;20434;-81
2023/06/25 03:41:53;;;;;;;6.50;6.00;;;16.80;99.90;;;;;;5969871;24;21019;-81
2023/06/25 03:44:20;;;;;;;6.40;5.90;;;16.80;99.90;;;;;;5953294;24;20458;-80
2023/06/25 03:46:47;;;;;;;6.40;5.90;;;16.80;99.90;;;;;;5977728;24;20458;-79
2023/06/25 03:49:14;;;;;;;6.33;5.70;;;16.80;99.90;;;;;;5967718;24;20446;-80
2023/06/25 03:51:41;;;;;;;6.87;6.30;;;16.70;99.90;;;;;;5959314;24;20568;-80
2023/06/25 03:54:08;;;;;;;6.90;6.30;;;16.70;99.90;;;;;;5969366;24;20462;-80
2023/06/25 03:56:35;;;;;;;6.20;5.80;;;16.70;99.90;;;;;;5955515;24;21009;-80
2023/06/25 03:59:03;;;;;;;6.67;6.17;;;16.70;99.90;;;;;;5957752;24;20438;-80
2023/06/25 04:01:30;;;;;;;6.70;6.03;;;16.70;99.90;;;;;;5960457;23;20518;-80
2023/06/25 04:03:58;;;;;;;6.80;6.20;;;16.80;99.90;;;;;;5973890;23;20445;-81
2023/06/25 04:06:25;;;;;;;6.47;5.90;;;16.80;99.90;;;;;;5969351;23;20438;-79
2023/06/25 04:08:52;;;;;;;7.23;6.60;;;16.80;99.90;;;;;;5962868;24;20561;-80
2023/06/25 04:11:19;;;;;;;7.07;6.00;;;16.80;99.90;;;;;;5945875;24;20830;-80
2023/06/25 04:13:46;;;;;;;7.37;6.77;;;16.90;99.90;;;;;;5960684;23;20554;-80
2023/06/25 04:16:14;;;;;;;7.30;6.70;;;16.90;99.90;;;;;;5966450;23;20430;-80
2023/06/25 04:18:42;;;;;;;6.47;5.90;;;16.90;99.90;;;;;;5949003;24;20477;-81
2023/06/25 04:21:09;;;;;;;6.23;5.73;;;17.00;99.90;;;;;;5966056;23;20438;-81
2023/06/25 04:23:37;;;;;;;6.57;6.13;;;17.00;99.90;;;;;;5958158;24;20498;-80
2023/06/25 04:26:04;;;;;;;7.13;6.60;;;17.00;99.90;;;;;;5948615;24;20442;-80
2023/06/25 04:28:31;;;;;;;6.87;6.27;;;17.00;99.90;;;;;;5965559;24;20434;-80
2023/06/25 04:30:58;;;;;;;6.60;6.10;;;17.00;99.90;;;;;;5967050;24;20493;-80
2023/06/25 04:33:27;;;;;;;7.13;6.57;;;17.00;99.90;;;;;;5966193;24;20466;-80
2023/06/25 04:35:54;;;;;;;7.67;6.93;;;17.10;99.90;;;;;;5966363;23;20434;-80
2023/06/25 04:38:21;;;;;;;7.40;6.80;;;17.20;99.90;;;;;;5965367;24;20487;-76
2023/06/25 04:40:48;;;;;;;7.73;7.03;;;17.20;99.90;;;;;;5963254;24;20499;-76
2023/06/25 04:43:15;;;;;;;7.73;7.03;;;17.40;99.90;;;;;;5953818;24;21322;-75
2023/06/25 04:45:42;;;;;;;7.13;6.60;;;17.40;99.90;;;;;;5967106;23;20938;-76
2023/06/25 04:48:10;;;;;;;9.00;8.23;;;17.50;99.90;;;;;;5957014;24;20438;-75
2023/06/25 04:50:38;;;;;;;9.37;8.57;;;17.50;99.90;;;;;;5931579;24;20541;-76
2023/06/25 04:53:05;;;;;;;9.37;8.57;;;17.40;99.90;;;;;;5949844;24;20493;-75
2023/06/25 04:55:32;;;;;;;8.93;8.13;;;17.50;99.90;;;;;;5953474;24;20950;-75
2023/06/25 04:57:59;;;;;;;7.77;7.17;;;17.50;99.90;;;;;;5958482;24;20521;-76
2023/06/25 05:00:26;;;;;;;8.57;7.80;;;17.60;99.90;;;;;;5960136;24;20442;-76
2023/06/25 05:02:53;;;;;;;9.50;8.70;;;17.70;99.90;;;;;;5959015;24;20875;-76
2023/06/25 05:05:21;;;;;;;8.83;8.13;;;17.80;99.90;;;;;;5954087;24;20458;-75
2023/06/25 05:07:49;;;;;;;8.70;7.90;;;17.80;99.90;;;;;;5935916;24;20963;-76
2023/06/25 05:10:16;;;;;;;8.77;8.03;;;17.90;99.90;;;;;;5946515;24;20443;-76
2023/06/25 05:12:50;;;;;;;8.67;7.97;;;18.00;99.90;;;;;;5936499;24;21069;-75
2023/06/25 05:15:17;;;;;;;8.50;7.80;;;18.10;99.90;;;;;;5943504;24;20523;-76
2023/06/25 05:17:45;;;;;;;9.00;8.30;;;18.20;99.90;;;;;;5931160;24;20498;-76
2023/06/25 05:20:12;;;;;;;8.13;7.43;;;18.20;99.90;;;;;;5939010;24;20442;-76
2023/06/25 05:22:39;;;;;;;8.13;7.53;;;18.20;99.90;;;;;;5940281;24;20463;-75
2023/06/25 05:25:10;;;;;;;7.73;7.13;;;18.30;99.90;;;;;;5938314;24;20799;-76
2023/06/25 05:27:41;;;;;;;7.30;6.70;;;18.30;99.90;;;;;;5935305;24;20438;-75
2023/06/25 05:30:09;;;;;;;6.97;6.47;;;18.40;99.90;;;;;;5944962;24;20439;-76
2023/06/25 05:32:36;;;;;;;6.80;6.30;;;18.50;99.90;;;;;;5943653;24;20545;-76
2023/06/25 05:35:04;;;;;;;7.17;6.50;;;18.60;99.90;;;;;;5941353;24;20442;-76
2023/06/25 05:37:31;;;;;;;6.90;6.30;;;18.70;99.90;;;;;;5950548;24;20450;-79
2023/06/25 05:40:07;;;;;;;6.50;6.00;;;18.80;99.90;;;;;;5961018;24;20465;-77
2023/06/25 05:42:35;;;;;;;6.83;6.23;;;18.80;99.90;;;;;;5947709;24;20510;-80
2023/06/25 05:45:02;;;;;;;6.70;6.20;;;18.90;99.90;;;;;;5947378;24;20807;-77
2023/06/25 05:47:29;;;;;;;6.50;6.00;;;19.00;99.90;;;;;;5942895;24;20459;-74
2023/06/25 05:49:57;;;;;;;6.30;5.80;;;19.10;99.90;;;;;;5947120;23;20447;-77
2023/06/25 05:52:24;;;;;;;6.40;5.90;;;19.10;99.90;;;;;;5955085;24;20560;-76
2023/06/25 05:54:51;;;;;;;6.43;5.90;;;19.10;99.90;;;;;;5979533;24;20430;-76
2023/06/25 05:57:19;;;;;;;7.07;6.57;;;19.30;99.90;;;;;;5955523;24;20444;-77
2023/06/25 05:59:48;;;;;;;5.97;5.47;;;19.40;99.90;;;;;;5943882;24;20436;-76
2023/06/25 06:02:15;;;;;;;5.97;5.57;;;19.40;99.90;;;;;;5937604;24;20518;-77
2023/06/25 06:04:42;;;;;;;6.83;6.20;;;19.50;99.90;;;;;;5950196;24;20953;-76
2023/06/25 06:07:10;;;;;;;6.10;5.60;;;19.70;99.90;;;;;;5940116;24;20447;-76
2023/06/25 06:09:37;;;;;;;5.50;5.10;;;19.70;99.90;;;;;;5949948;24;20435;-76
2023/06/25 06:12:05;;;;;;;5.83;5.33;;;19.80;99.90;;;;;;5946176;24;20470;-77
2023/06/25 06:14:33;;;;;;;6.63;6.13;;;19.90;99.90;;;;;;5949151;24;20484;-78
2023/06/25 06:17:01;;;;;;;6.40;5.90;;;20.00;99.90;;;;;;5943017;24;20461;-78
2023/06/25 06:19:36;;;;;;;5.93;5.43;;;20.10;99.90;;;;;;5952368;24;20463;-79
2023/06/25 06:22:03;;;;;;;6.63;6.00;;;20.30;99.90;;;;;;5942059;24;20558;-79
2023/06/25 06:24:30;;;;;;;6.30;5.70;;;20.40;99.90;;;;;;5943341;24;20524;-78
2023/06/25 06:26:57;;;;;;;6.17;5.67;;;20.40;99.90;;;;;;5935728;24;20514;-78
2023/06/25 06:29:24;;;;;;;6.80;6.30;;;20.50;99.90;;;;;;5950087;24;20957;-79
2023/06/25 06:31:51;;;;;;;5.83;5.43;;;20.60;99.90;;;;;;5950495;24;20792;-77
2023/06/25 06:34:20;;;;;;;5.80;5.30;;;20.80;99.90;;;;;;5948419;24;20447;-77
2023/06/25 06:36:47;;;;;;;6.30;5.80;;;20.90;99.90;;;;;;5948726;24;20469;-76
2023/06/25 06:39:16;;;;;;;6.20;5.70;;;21.10;99.90;;;;;;5945075;24;20538;-75
2023/06/25 06:41:43;;;;;;;6.00;5.50;;;21.20;99.90;;;;;;5941601;23;20808;-73
2023/06/25 06:44:17;;;;;;;6.50;6.00;;;21.30;99.90;;;;;;5951951;24;20439;-77
2023/06/25 06:46:45;;;;;;;6.73;6.23;;;21.40;99.90;;;;;;5950078;24;20445;-77
2023/06/25 06:49:12;;;;;;;6.40;5.80;;;21.50;99.90;;;;;;5943533;24;20465;-78
2023/06/25 06:51:47;;;;;;;7.20;6.60;;;21.60;99.90;;;;;;5936929;24;20473;-77
2023/06/25 06:54:14;;;;;;;6.17;5.77;;;21.70;99.90;;;;;;5948993;24;20839;-77
2023/06/25 06:56:41;;;;;;;6.20;5.70;;;21.80;99.90;;;;;;5934265;24;20441;-77
2023/06/25 06:59:08;;;;;;;6.60;6.10;;;21.90;99.90;;;;;;5935782;24;20493;-77
2023/06/25 07:01:35;;;;;;;6.40;5.90;;;22.00;99.90;;;;;;5950796;24;20443;-76
2023/06/25 07:04:03;;;;;;;6.90;6.30;;;22.10;99.90;;;;;;5946238;24;20525;-76
2023/06/25 07:06:30;;;;;;;6.27;5.87;;;22.10;99.90;;;;;;5955859;24;20439;-76
2023/06/25 07:09:00;;;;;;;7.43;6.83;;;22.20;99.90;;;;;;5942144;24;20956;-76
2023/06/25 07:11:27;;;;;;;7.30;6.70;;;22.30;99.90;;;;;;5946924;24;20459;-75
2023/06/25 07:13:54;;;;;;;6.40;5.90;;;22.40;99.90;;;;;;5945550;24;20571;-76
2023/06/25 07:16:21;;;;;;;6.80;6.30;;;22.50;99.90;;;;;;5942673;24;20478;-76
2023/06/25 07:18:48;;;;;;;6.87;6.37;;;22.50;99.90;;;;;;5941762;24;20463;-75
2023/06/25 07:21:15;;;;;;;7.33;6.73;;;22.70;99.90;;;;;;5937890;24;20561;-76
2023/06/25 07:23:42;;;;;;;7.10;6.60;;;22.90;99.90;;;;;;5955454;24;20839;-76
2023/06/25 07:26:10;;;;;;;7.60;7.00;;;23.00;99.90;;;;;;5947252;24;20439;-76
2023/06/25 07:28:37;;;;;;;7.23;6.63;;;23.10;99.90;;;;;;5961341;24;20434;-75
2023/06/25 07:31:04;;;;;;;7.90;7.30;;;23.30;99.90;;;;;;5923895;24;20532;-74
2023/06/25 07:33:31;;;;;;;6.80;6.10;;;23.30;99.60;;;;;;5943650;24;20478;-74
2023/06/25 07:35:58;;;;;;;6.40;5.90;;;23.50;99.60;;;;;;5947858;24;20447;-74
2023/06/25 07:38:26;;;;;;;6.80;6.30;;;23.60;99.90;;;;;;5950512;24;20808;-74
2023/06/25 07:40:53;;;;;;;7.27;6.60;;;23.80;99.30;;;;;;5938351;24;20441;-74
2023/06/25 07:43:23;;;;;;;7.93;7.23;;;24.00;99.00;;;;;;5951799;24;20486;-74
2023/06/25 07:45:50;;;;;;;7.10;6.60;;;24.10;99.60;;;;;;5952217;24;20494;-78
2023/06/25 07:48:18;;;;;;;6.77;6.27;;;24.50;98.90;;;;;;5941814;24;20443;-75
2023/06/25 07:50:45;;;;;;;7.00;6.50;;;24.80;98.50;;;;;;5937300;24;20447;-71
2023/06/25 07:53:13;;;;;;;6.30;5.70;;;25.10;97.10;;;;;;5945390;24;21211;-74
2023/06/25 07:55:41;;;;;;;7.23;6.63;;;25.20;96.40;;;;;;5930457;24;20803;-74
2023/06/25 07:58:09;;;;;;;6.70;6.20;;;24.80;95.10;;;;;;5941661;24;20476;-74
2023/06/25 08:00:37;;;;;;;7.20;6.60;;;24.80;95.30;;;;;;5933671;24;20452;-74
2023/06/25 08:03:04;;;;;;;7.90;7.30;;;24.70;95.00;;;;;;5935254;24;20538;-74
2023/06/25 08:05:31;;;;;;;7.80;7.10;;;24.80;95.20;;;;;;5932561;24;20473;-74
2023/06/25 08:07:59;;;;;;;7.33;6.83;;;25.00;94.40;;;;;;5930431;24;20446;-74
2023/06/25 08:10:26;;;;;;;7.00;6.50;;;25.20;93.80;;;;;;5935909;24;20448;-75
2023/06/25 08:12:55;;;;;;;7.70;7.10;;;25.30;92.90;;;;;;5954965;23;20833;-74
2023/06/25 08:15:23;;;;;;;7.17;6.67;;;25.40;92.20;;;;;;5949762;24;21053;-74
2023/06/25 08:18:16;;;;;;;8.00;7.30;;;25.40;91.70;;;;;;5936680;24;20906;-75
2023/06/25 08:20:44;;;;;;;7.70;7.10;;;25.40;92.40;;;;;;5938574;24;20482;-76
2023/06/25 08:23:11;;;;;;;7.13;6.53;;;25.50;92.40;;;;;;5954912;24;20459;-77
2023/06/25 08:25:38;;;;;;;7.53;6.83;;;25.60;91.30;;;;;;5946637;24;20496;-77
2023/06/25 08:28:05;;;;;;;7.23;6.70;;;25.50;92.10;;;;;;5942394;24;20451;-75
2023/06/25 08:30:32;;;;;;;7.83;7.23;;;25.70;91.20;;;;;;5949215;24;20490;-77
2023/06/25 08:32:59;;;;;;;7.47;6.87;;;25.70;90.60;;;;;;5948369;24;20479;-77
2023/06/25 08:35:28;;;;;;;7.07;6.47;;;25.90;90.70;;;;;;5937142;24;20450;-71
2023/06/25 08:37:55;;;;;;;8.03;7.37;;;26.10;90.20;;;;;;5944614;24;20439;-77
2023/06/25 08:40:23;;;;;;;7.60;7.07;;;26.30;87.00;;;;;;5941406;24;21011;-74
2023/06/25 08:42:50;;;;;;;7.60;7.00;;;26.50;87.20;;;;;;5949773;24;20457;-76
2023/06/25 08:45:18;;;;;;;7.80;7.20;;;26.70;89.00;;;;;;5943585;24;20471;-76
2023/06/25 08:47:46;;;;;;;8.40;7.80;;;26.90;85.80;;;;;;5940503;24;20522;-76
2023/06/25 08:50:13;;;;;;;7.43;6.93;;;27.00;83.30;;;;;;5947116;24;20996;-76
2023/06/25 08:52:43;;;;;;;8.30;7.60;;;27.10;84.00;;;;;;5945281;24;20513;-76
2023/06/25 08:55:11;;;;;;;7.40;6.80;;;27.10;81.30;;;;;;5943877;23;20795;-76
2023/06/25 08:57:38;;;;;;;7.47;6.87;;;27.20;83.70;;;;;;5933639;24;20796;-76
2023/06/25 09:00:07;;;;;;;8.23;7.60;;;27.20;84.70;;;;;;5950905;23;20445;-76
2023/06/25 09:02:34;;;;;;;7.93;6.70;;;27.30;80.50;;;;;;5943433;24;20462;-76
2023/06/25 09:05:06;;;;;;;7.63;7.03;;;27.40;81.90;;;;;;5944462;24;20858;-76
2023/06/25 09:07:34;;;;;;;8.17;7.47;;;27.60;79.10;;;;;;5947676;24;21019;-76
2023/06/25 09:10:07;;;;;;;6.70;6.20;;;27.60;77.50;;;;;;5947821;24;20443;-76
2023/06/25 09:12:34;;;;;;;7.40;6.80;;;27.40;72.00;;;;;;5939750;24;20462;-76
2023/06/25 09:15:01;;;;;;;7.07;6.57;;;27.60;70.00;;;;;;5942895;24;20553;-76
2023/06/25 09:17:28;;;;;;;7.80;7.20;;;27.80;68.60;;;;;;5941068;24;20438;-76
2023/06/25 09:19:55;;;;;;;7.60;7.00;;;28.00;67.60;;;;;;5940325;23;20450;-75
2023/06/25 09:22:51;;;;;;;7.63;7.03;;;28.10;67.60;;;;;;5954160;24;20795;-76
2023/06/25 09:25:45;;;;;;;7.13;6.63;;;27.80;65.90;;;;;;5947121;24;21010;-76
2023/06/25 09:28:46;;;;;;;7.13;6.53;;;27.50;65.40;;;;;;5946619;24;20536;-76
2023/06/25 09:31:40;;;;;;;6.63;6.17;;;27.50;66.40;;;;;;5943652;24;20540;-76
2023/06/25 09:34:32;;;;;;;6.93;6.43;;;27.50;62.60;;;;;;5936300;24;20990;-75
2023/06/25 09:37:24;;;;;;;7.23;6.73;;;27.80;64.80;;;;;;5943294;24;20432;-76
2023/06/25 09:40:16;;;;;;;7.40;6.73;;;28.10;64.40;;;;;;5934687;24;20439;-77
2023/06/25 09:43:10;;;;;;;7.13;6.53;;;28.20;61.00;;;;;;5933917;23;20446;-77
2023/06/25 09:46:03;;;;;;;7.60;6.90;;;28.20;62.10;;;;;;5957654;24;21034;-76
2023/06/25 09:48:57;;;;;;;7.50;6.90;;;28.20;61.60;;;;;;5952404;24;20434;-77
2023/06/25 09:51:54;;;;;;;6.97;6.37;;;28.40;64.40;;;;;;5942531;24;20924;-77
2023/06/25 09:54:47;;;;;;;6.83;6.23;;;28.80;60.60;;;;;;5942878;24;20964;-77
2023/06/25 09:57:40;;;;;;;7.03;6.53;;;28.60;61.80;;;;;;5939448;24;20556;-76
2023/06/25 10:00:35;;;;;;;7.00;6.40;;;28.60;62.80;;;;;;5937450;24;20552;-77
2023/06/25 10:03:27;;;;;;;7.47;6.97;;;28.70;64.70;;;;;;5941961;24;20449;-77
2023/06/25 10:06:20;;;;;;;6.87;6.37;;;29.20;61.40;;;;;;5942381;24;20785;-76
2023/06/25 10:09:12;;;;;;;7.57;7.07;;;29.50;63.20;;;;;;5948149;23;20494;-76
2023/06/25 10:12:04;;;;;;;6.47;5.97;;;30.00;58.10;;;;;;5946962;24;20548;-77
2023/06/25 10:14:56;;;;;;;7.53;6.83;;;30.40;57.20;;;;;;5944987;24;20451;-77
2023/06/25 10:17:52;;;;;;;7.00;6.50;;;30.50;55.80;;;;;;5949904;24;20442;-77
2023/06/25 10:20:45;;;;;;;6.47;6.00;;;30.60;59.00;;;;;;5949643;24;20593;-76
2023/06/25 10:23:37;;;;;;;7.10;6.60;;;31.50;56.70;;;;;;5940895;24;21072;-77
2023/06/25 10:26:30;;;;;;;7.13;6.57;;;31.30;54.40;;;;;;5940569;24;20776;-77
2023/06/25 10:29:22;;;;;;;6.60;6.10;;;31.80;54.80;;;;;;5934067;24;20450;-77
2023/06/25 10:32:14;;;;;;;6.60;6.10;;;32.20;51.30;;;;;;5943723;24;20457;-77
2023/06/25 10:35:09;;;;;;;6.00;5.50;;;32.50;50.20;;;;;;5932577;24;20439;-77
2023/06/25 10:38:01;;;;;;;6.90;6.40;;;32.70;47.20;;;;;;5939643;24;20428;-77
2023/06/25 10:40:54;;;;;;;6.90;6.37;;;32.20;48.20;;;;;;5935725;24;20419;-77
2023/06/25 10:43:46;;;;;;;7.17;6.67;;;32.10;49.10;;;;;;5948278;24;20449;-77
2023/06/25 10:46:38;;;;;;;7.67;7.17;;;32.30;49.40;;;;;;5940343;24;20527;-77
2023/06/25 10:49:30;;;;;;;7.40;6.90;;;32.30;48.10;;;;;;5948803;24;20771;-76
2023/06/25 10:52:23;;;;;;;7.87;7.17;;;32.20;48.40;;;;;;5935386;24;20959;-77
2023/06/25 10:55:15;;;;;;;7.20;6.67;;;32.40;49.00;;;;;;5941874;24;20771;-77
2023/06/25 10:58:07;;;;;;;6.93;6.43;;;32.40;48.20;;;;;;5935575;24;20442;-77
2023/06/25 11:01:00;;;;;;;6.90;6.40;;;31.70;47.10;;;;;;5934446;24;20426;-76
2023/06/25 11:03:52;;;;;;;7.80;7.30;;;31.60;48.00;;;;;;5949589;24;20466;-76
2023/06/25 11:06:44;;;;;;;7.40;6.90;;;31.50;48.60;;;;;;5955309;24;20489;-77
2023/06/25 11:09:38;;;;;;;7.60;7.10;;;30.90;50.10;;;;;;5955897;24;20915;-76
2023/06/25 11:12:30;;;;;;;6.83;6.33;;;31.00;49.70;;;;;;5950550;24;20663;-76
2023/06/25 11:15:22;;;;;;;7.00;6.50;;;31.20;49.10;;;;;;5941716;24;20434;-76
2023/06/25 11:18:14;;;;;;;6.80;6.30;;;31.40;47.70;;;;;;5935245;24;20998;-76
2023/06/25 11:21:09;;;;;;;5.63;5.20;;;31.50;45.90;;;;;;5956708;24;20451;-76
2023/06/25 11:24:07;;;;;;;5.97;5.57;;;31.40;46.90;;;;;;5950897;23;21031;-77
2023/06/25 11:27:00;;;;;;;6.87;6.37;;;32.20;47.90;;;;;;5947747;24;20509;-77
2023/06/25 11:29:53;;;;;;;6.17;5.67;;;32.90;47.30;;;;;;5951337;24;20513;-77
2023/06/25 11:32:45;;;;;;;6.93;6.43;;;32.70;46.30;;;;;;5953584;24;20453;-77
2023/06/25 11:35:37;;;;;;;6.77;6.17;;;33.10;46.90;;;;;;5952491;23;20970;-76
2023/06/25 11:38:30;;;;;;;6.90;6.40;;;33.80;45.60;;;;;;5951793;24;20434;-77
2023/06/25 11:41:26;;;;;;;6.10;5.70;;;34.60;44.70;;;;;;5950965;23;20470;-77
2023/06/25 11:44:20;;;;;;;6.63;6.13;;;35.10;44.10;;;;;;5951674;24;20823;-77
2023/06/25 11:47:15;;;;;;;6.60;6.10;;;35.60;42.40;;;;;;5953147;24;20434;-77
2023/06/25 11:50:11;;;;;;;5.37;5.03;;;36.20;43.60;;;;;;5953509;24;20772;-77
2023/06/25 11:53:03;;;;;;;6.53;6.03;;;36.10;42.60;;;;;;5953797;24;20458;-77
2023/06/25 16:40:19;;;;;;;7.07;6.57;;;30.80;44.60;;;;;;5933560;24;20494;-80
2023/06/25 16:42:46;;;;;;;6.90;6.40;;;30.50;44.60;;;;;;5937159;24;20451;-78
2023/06/25 16:45:14;;;;;;;6.23;5.83;;;30.40;44.80;;;;;;5942779;24;20800;-79
2023/06/25 16:47:41;;;;;;;7.17;6.57;;;30.40;45.30;;;;;;5953275;24;20450;-81
2023/06/25 16:50:09;;;;;;;7.57;6.87;;;30.30;45.80;;;;;;5951115;24;20438;-79
2023/06/25 16:52:36;;;;;;;7.30;6.80;;;30.30;45.50;;;;;;5948629;24;20439;-79
2023/06/25 16:55:03;;;;;;;7.40;6.90;;;30.10;44.90;;;;;;5953627;24;20488;-77
2023/06/25 16:57:32;;;;;;;8.10;7.33;;;30.10;44.80;;;;;;5956324;24;20855;-73
2023/06/25 16:59:59;;;;;;;7.77;7.17;;;30.20;45.20;;;;;;5957279;23;20442;-73
2023/06/25 17:02:26;;;;;;;8.70;8.00;;;30.20;45.10;;;;;;5959097;24;20466;-78
2023/06/25 17:04:53;;;;;;;7.53;6.93;;;30.30;45.20;;;;;;5953181;24;23490;-80
2023/06/25 17:07:20;;;;;;;6.57;6.17;;;30.30;44.30;;;;;;5956790;24;20530;-82
2023/06/25 17:09:47;;;;;;;7.13;6.53;;;30.30;44.90;;;;;;5954227;24;20973;-81
2023/06/25 17:12:15;;;;;;;7.80;7.10;;;30.40;44.10;;;;;;5960196;24;20466;-79
2023/06/25 17:14:43;;;;;;;7.80;7.20;;;30.50;44.80;;;;;;5957082;24;20507;-80
2023/06/25 17:17:10;;;;;;;7.30;6.80;;;30.50;45.70;;;;;;5960705;24;20525;-75
2023/06/25 17:19:37;;;;;;;7.87;7.27;;;30.40;44.00;;;;;;5950765;24;20445;-75
2023/06/25 17:22:04;;;;;;;7.40;6.90;;;30.30;45.50;;;;;;5959837;23;20451;-76
2023/06/25 17:24:31;;;;;;;7.20;6.60;;;30.30;44.80;;;;;;5958694;24;20454;-81
2023/06/25 17:26:59;;;;;;;7.90;7.30;;;30.10;45.80;;;;;;5954603;24;20427;-79
2023/06/25 17:29:26;;;;;;;7.30;6.80;;;30.10;45.90;;;;;;5944529;24;20439;-80
2023/06/25 17:31:54;;;;;;;8.03;7.33;;;30.10;46.40;;;;;;5943259;24;20557;-79
2023/06/25 17:34:21;;;;;;;7.53;7.03;;;30.00;45.70;;;;;;5938803;24;20501;-79
2023/06/25 17:36:48;;;;;;;6.87;6.37;;;29.90;45.20;;;;;;5944581;24;20446;-79
2023/06/25 17:39:15;;;;;;;7.40;6.90;;;29.80;46.10;;;;;;5942406;24;20556;-77
2023/06/25 17:41:43;;;;;;;8.10;7.30;;;29.80;46.00;;;;;;5936355;24;20464;-76
2023/06/25 17:44:10;;;;;;;7.37;6.77;;;29.70;46.20;;;;;;5934818;24;20573;-75
2023/06/25 17:46:37;;;;;;;7.73;7.13;;;29.70;46.00;;;;;;5948472;24;20484;-76
2023/06/25 17:49:05;;;;;;;6.80;6.30;;;29.60;45.20;;;;;;5943872;24;20446;-77
2023/06/25 17:51:32;;;;;;;7.40;6.90;;;29.60;45.80;;;;;;5938494;23;20918;-76
2023/06/25 17:53:59;;;;;;;8.10;7.40;;;29.50;46.40;;;;;;5950800;24;20997;-76
2023/06/25 17:56:27;;;;;;;7.20;6.70;;;29.40;46.10;;;;;;5938438;24;20438;-77
2023/06/25 17:58:54;;;;;;;7.77;7.17;;;29.30;46.00;;;;;;5948725;24;20433;-77